sensor_id;sensor_type;location;lat;lon;timestamp;pressure;altitude;pressure_sealevel;temperature;humidity
42945;BME280;28584;42.636;23.294;2023-04-07T00:00:49;158649.84;;;0.34;69.20
42945;BME280;28584;42.636;23.294;2023-04-07T00:03:15;158667.06;;;0.40;69.00
42945;BME280;28584;42.636;23.294;2023-04-07T00:05:40;158669.69;;;0.41;68.81
42945;BME280;28584;42.636;23.294;2023-04-07T00:08:06;158636.56;;;0.29;68.73
42945;BME280;28584;42.636;23.294;2023-04-07T00:10:32;158628.63;;;0.26;69.45
42945;BME280;28584;42.636;23.294;2023-04-07T00:12:57;158612.75;;;0.20;69.99
42945;BME280;28584;42.636;23.294;2023-04-07T00:15:23;158657.81;;;0.37;68.45
42945;BME280;28584;42.636;23.294;2023-04-07T00:17:48;158633.94;;;0.28;68.43
42945;BME280;28584;42.636;23.294;2023-04-07T00:20:13;158588.91;;;0.11;71.05
42945;BME280;28584;42.636;23.294;2023-04-07T00:22:39;158604.81;;;0.17;71.52
42945;BME280;28584;42.636;23.294;2023-04-07T00:25:05;158590.25;;;0.11;72.75
42945;BME280;28584;42.636;23.294;2023-04-07T00:27:30;158562.41;;;0.00;75.04
42945;BME280;28584;42.636;23.294;2023-04-07T00:29:56;158562.41;;;0.00;76.15
42945;BME280;28584;42.636;23.294;2023-04-07T00:32:21;158600.84;;;0.15;73.15
42945;BME280;28584;42.636;23.294;2023-04-07T00:34:47;158626.00;;;0.25;71.61
42945;BME280;28584;42.636;23.294;2023-04-07T00:37:12;158578.31;;;0.07;72.63
42945;BME280;28584;42.636;23.294;2023-04-07T00:39:38;158574.34;;;0.05;72.60
42945;BME280;28584;42.636;23.294;2023-04-07T00:42:03;158573.00;;;0.04;72.47
42945;BME280;28584;42.636;23.294;2023-04-07T00:44:32;158555.78;;;-0.02;72.68
42945;BME280;28584;42.636;23.294;2023-04-07T00:46:58;158594.22;;;0.13;72.83
42945;BME280;28584;42.636;23.294;2023-04-07T00:49:24;158571.72;;;0.04;75.39
42945;BME280;28584;42.636;23.294;2023-04-07T00:51:50;158535.91;;;-0.10;76.81
42945;BME280;28584;42.636;23.294;2023-04-07T00:54:17;158562.41;;;0.00;76.31
42945;BME280;28584;42.636;23.294;2023-04-07T00:56:42;158595.50;;;0.13;72.52
42945;BME280;28584;42.636;23.294;2023-04-07T00:59:08;158575.69;;;0.06;72.47
42945;BME280;28584;42.636;23.294;2023-04-07T01:01:47;158594.22;;;0.13;71.98
42945;BME280;28584;42.636;23.294;2023-04-07T01:04:32;158594.22;;;0.13;73.42
42945;BME280;28584;42.636;23.294;2023-04-07T01:07:10;158565.03;;;0.01;76.81
42945;BME280;28584;42.636;23.294;2023-04-07T01:09:40;158562.41;;;0.00;78.00
42945;BME280;28584;42.636;23.294;2023-04-07T01:14:51;158616.75;;;0.21;74.85
42945;BME280;28584;42.636;23.294;2023-04-07T01:17:20;158575.69;;;0.06;76.83
42945;BME280;28584;42.636;23.294;2023-04-07T01:19:52;158558.44;;;-0.01;77.98
42945;BME280;28584;42.636;23.294;2023-04-07T01:22:26;158557.16;;;-0.02;78.50
42945;BME280;28584;42.636;23.294;2023-04-07T01:25:06;158550.47;;;-0.04;79.89
42945;BME280;28584;42.636;23.294;2023-04-07T01:27:48;158571.72;;;0.04;78.46
42945;BME280;28584;42.636;23.294;2023-04-07T01:30:19;158595.50;;;0.13;78.09
42945;BME280;28584;42.636;23.294;2023-04-07T01:32:50;158580.94;;;0.08;77.83
42945;BME280;28584;42.636;23.294;2023-04-07T01:35:17;158590.25;;;0.11;78.08
42945;BME280;28584;42.636;23.294;2023-04-07T01:37:44;158607.44;;;0.18;78.93
42945;BME280;28584;42.636;23.294;2023-04-07T01:40:11;158629.97;;;0.26;77.10
42945;BME280;28584;42.636;23.294;2023-04-07T01:42:38;158652.47;;;0.35;74.53
42945;BME280;28584;42.636;23.294;2023-04-07T01:45:04;158682.97;;;0.46;72.33
42945;BME280;28584;42.636;23.294;2023-04-07T01:47:31;158689.56;;;0.49;72.00
42945;BME280;28584;42.636;23.294;2023-04-07T01:49:58;158700.16;;;0.53;70.76
42945;BME280;28584;42.636;23.294;2023-04-07T01:52:25;158726.69;;;0.63;69.45
42945;BME280;28584;42.636;23.294;2023-04-07T01:54:52;158732.00;;;0.65;68.57
42945;BME280;28584;42.636;23.294;2023-04-07T01:57:18;158728.03;;;0.63;67.36
42945;BME280;28584;42.636;23.294;2023-04-07T01:59:43;158712.09;;;0.57;67.03
42945;BME280;28584;42.636;23.294;2023-04-07T02:02:08;158716.09;;;0.59;65.90
42945;BME280;28584;42.636;23.294;2023-04-07T02:04:34;158692.22;;;0.50;65.95
42945;BME280;28584;42.636;23.294;2023-04-07T02:09:59;158633.94;;;0.28;67.38
42945;BME280;28584;42.636;23.294;2023-04-07T02:12:28;158629.97;;;0.26;67.62
42945;BME280;28584;42.636;23.294;2023-04-07T02:14:54;158637.91;;;0.29;66.95
42945;BME280;28584;42.636;23.294;2023-04-07T02:17:22;158657.81;;;0.37;66.47
42945;BME280;28584;42.636;23.294;2023-04-07T02:19:49;158647.16;;;0.33;66.99
42945;BME280;28584;42.636;23.294;2023-04-07T02:22:16;158657.81;;;0.37;66.93
42945;BME280;28584;42.636;23.294;2023-04-07T02:24:41;158665.72;;;0.40;66.97
42945;BME280;28584;42.636;23.294;2023-04-07T02:27:07;158697.53;;;0.52;66.98
42945;BME280;28584;42.636;23.294;2023-04-07T02:29:32;158710.75;;;0.57;67.48
42945;BME280;28584;42.636;23.294;2023-04-07T02:31:58;158716.09;;;0.59;67.25
42945;BME280;28584;42.636;23.294;2023-04-07T02:34:23;158702.81;;;0.54;67.55
42945;BME280;28584;42.636;23.294;2023-04-07T02:36:48;158717.44;;;0.59;67.32
42945;BME280;28584;42.636;23.294;2023-04-07T02:39:14;158733.28;;;0.65;66.73
42945;BME280;28584;42.636;23.294;2023-04-07T02:41:40;158735.97;;;0.66;66.69
42945;BME280;28584;42.636;23.294;2023-04-07T02:44:05;158761.16;;;0.76;66.94
42945;BME280;28584;42.636;23.294;2023-04-07T02:46:30;158778.34;;;0.82;66.14
42945;BME280;28584;42.636;23.294;2023-04-07T02:48:56;158781.00;;;0.83;65.66
42945;BME280;28584;42.636;23.294;2023-04-07T02:51:21;158786.31;;;0.85;65.53
42945;BME280;28584;42.636;23.294;2023-04-07T02:53:46;158800.88;;;0.91;65.15
42945;BME280;28584;42.636;23.294;2023-04-07T02:56:12;158835.34;;;1.04;65.02
42945;BME280;28584;42.636;23.294;2023-04-07T02:58:37;158824.75;;;1.00;64.94
42945;BME280;28584;42.636;23.294;2023-04-07T03:01:03;158832.72;;;1.03;64.66
42945;BME280;28584;42.636;23.294;2023-04-07T03:03:29;158819.44;;;0.98;64.65
42945;BME280;28584;42.636;23.294;2023-04-07T03:05:54;158844.63;;;1.07;63.68
42945;BME280;28584;42.636;23.294;2023-04-07T03:08:20;158859.25;;;1.13;63.35
42945;BME280;28584;42.636;23.294;2023-04-07T03:10:45;158853.91;;;1.11;63.13
42945;BME280;28584;42.636;23.294;2023-04-07T03:13:11;158856.56;;;1.12;63.39
42945;BME280;28584;42.636;23.294;2023-04-07T03:15:40;158848.59;;;1.09;63.17
42945;BME280;28584;42.636;23.294;2023-04-07T03:18:06;158857.91;;;1.12;63.04
42945;BME280;28584;42.636;23.294;2023-04-07T03:20:31;158856.56;;;1.12;62.93
42945;BME280;28584;42.636;23.294;2023-04-07T03:22:56;158869.84;;;1.17;62.71
42945;BME280;28584;42.636;23.294;2023-04-07T03:25:22;158869.84;;;1.17;62.73
42945;BME280;28584;42.636;23.294;2023-04-07T03:27:47;158869.84;;;1.17;62.50
42945;BME280;28584;42.636;23.294;2023-04-07T03:30:13;158861.88;;;1.14;62.87
42945;BME280;28584;42.636;23.294;2023-04-07T03:32:38;158843.31;;;1.07;62.98
42945;BME280;28584;42.636;23.294;2023-04-07T03:35:04;158848.59;;;1.09;63.11
42945;BME280;28584;42.636;23.294;2023-04-07T03:37:29;158798.25;;;0.90;63.42
42945;BME280;28584;42.636;23.294;2023-04-07T03:39:55;158770.38;;;0.79;63.96
42945;BME280;28584;42.636;23.294;2023-04-07T03:42:20;158725.34;;;0.62;64.57
42945;BME280;28584;42.636;23.294;2023-04-07T03:44:45;158709.47;;;0.56;65.85
42945;BME280;28584;42.636;23.294;2023-04-07T03:47:11;158676.34;;;0.44;67.61
42945;BME280;28584;42.636;23.294;2023-04-07T03:49:36;158610.09;;;0.19;70.09
42945;BME280;28584;42.636;23.294;2023-04-07T03:52:03;158578.31;;;0.07;75.16
42945;BME280;28584;42.636;23.294;2023-04-07T03:54:29;158575.69;;;0.06;76.91
42945;BME280;28584;42.636;23.294;2023-04-07T03:56:54;158565.03;;;0.01;79.98
42945;BME280;28584;42.636;23.294;2023-04-07T03:59:21;158549.19;;;-0.05;82.13
42945;BME280;28584;42.636;23.294;2023-04-07T04:01:47;158567.72;;;0.03;82.10
42945;BME280;28584;42.636;23.294;2023-04-07T04:04:12;158553.16;;;-0.03;84.23
42945;BME280;28584;42.636;23.294;2023-04-07T04:06:38;158562.41;;;0.00;84.95
42945;BME280;28584;42.636;23.294;2023-04-07T04:09:03;158565.03;;;0.01;84.64
42945;BME280;28584;42.636;23.294;2023-04-07T04:11:28;158600.84;;;0.15;81.67
42945;BME280;28584;42.636;23.294;2023-04-07T04:13:55;158612.75;;;0.20;81.45
42945;BME280;28584;42.636;23.294;2023-04-07T04:16:21;158637.91;;;0.29;79.56
42945;BME280;28584;42.636;23.294;2023-04-07T04:18:46;158673.66;;;0.43;77.54
42945;BME280;28584;42.636;23.294;2023-04-07T04:21:11;158700.16;;;0.53;74.74
42945;BME280;28584;42.636;23.294;2023-04-07T04:23:37;158757.16;;;0.74;72.21
42945;BME280;28584;42.636;23.294;2023-04-07T04:26:02;158792.91;;;0.88;70.54
42945;BME280;28584;42.636;23.294;2023-04-07T04:28:28;158820.78;;;0.98;69.38
42945;BME280;28584;42.636;23.294;2023-04-07T04:30:53;158841.97;;;1.06;67.98
42945;BME280;28584;42.636;23.294;2023-04-07T04:33:19;158871.13;;;1.17;67.46
42945;BME280;28584;42.636;23.294;2023-04-07T04:35:45;158879.09;;;1.20;67.56
42945;BME280;28584;42.636;23.294;2023-04-07T04:38:11;158906.97;;;1.31;67.32
42945;BME280;28584;42.636;23.294;2023-04-07T04:40:36;158942.75;;;1.44;66.29
42945;BME280;28584;42.636;23.294;2023-04-07T04:43:02;158950.69;;;1.47;65.55
42945;BME280;28584;42.636;23.294;2023-04-07T04:45:34;159001.06;;;1.66;64.83
42945;BME280;28584;42.636;23.294;2023-04-07T04:47:59;158998.44;;;1.65;64.91
42945;BME280;28584;42.636;23.294;2023-04-07T04:50:25;159042.19;;;1.82;65.05
42945;BME280;28584;42.636;23.294;2023-04-07T04:52:51;159055.47;;;1.87;63.43
42945;BME280;28584;42.636;23.294;2023-04-07T04:55:16;159092.63;;;2.01;62.52
42945;BME280;28584;42.636;23.294;2023-04-07T04:57:41;159133.75;;;2.16;62.32
42945;BME280;28584;42.636;23.294;2023-04-07T05:00:07;159156.31;;;2.25;61.30
42945;BME280;28584;42.636;23.294;2023-04-07T05:02:34;159182.84;;;2.35;60.19
42945;BME280;28584;42.636;23.294;2023-04-07T05:04:59;159278.41;;;2.71;59.75
42945;BME280;28584;42.636;23.294;2023-04-07T05:07:25;159328.88;;;2.90;58.64
42945;BME280;28584;42.636;23.294;2023-04-07T05:09:50;159376.66;;;3.08;58.39
42945;BME280;28584;42.636;23.294;2023-04-07T05:12:16;159404.50;;;3.19;57.62
42945;BME280;28584;42.636;23.294;2023-04-07T05:14:41;159384.63;;;3.11;57.22
42945;BME280;28584;42.636;23.294;2023-04-07T05:17:07;159339.47;;;2.94;57.09
42945;BME280;28584;42.636;23.294;2023-04-07T05:19:32;159371.31;;;3.06;56.59
42945;BME280;28584;42.636;23.294;2023-04-07T05:21:57;159420.47;;;3.25;56.59
42945;BME280;28584;42.636;23.294;2023-04-07T05:24:25;159445.69;;;3.34;56.60
42945;BME280;28584;42.636;23.294;2023-04-07T05:26:51;159457.66;;;3.39;56.29
42945;BME280;28584;42.636;23.294;2023-04-07T05:29:16;159521.41;;;3.63;56.30
42945;BME280;28584;42.636;23.294;2023-04-07T05:31:42;159578.56;;;3.84;55.73
42945;BME280;28584;42.636;23.294;2023-04-07T05:34:07;159562.59;;;3.78;54.94
42945;BME280;28584;42.636;23.294;2023-04-07T05:36:34;159621.03;;;4.00;55.18
42945;BME280;28584;42.636;23.294;2023-04-07T05:38:59;159618.41;;;3.99;54.50
42945;BME280;28584;42.636;23.294;2023-04-07T05:41:25;159570.56;;;3.81;54.36
42945;BME280;28584;42.636;23.294;2023-04-07T05:43:50;159615.75;;;3.98;53.98
42945;BME280;28584;42.636;23.294;2023-04-07T05:46:15;159740.66;;;4.45;53.98
42945;BME280;28584;42.636;23.294;2023-04-07T05:48:41;159553.31;;;3.75;57.09
42945;BME280;28584;42.636;23.294;2023-04-07T05:51:06;159493.53;;;3.52;60.12
42945;BME280;28584;42.636;23.294;2023-04-07T05:53:31;159461.63;;;3.40;62.79
42945;BME280;28584;42.636;23.294;2023-04-07T05:55:57;159546.63;;;3.72;62.61
42945;BME280;28584;42.636;23.294;2023-04-07T05:58:22;159674.22;;;4.20;62.00
42945;BME280;28584;42.636;23.294;2023-04-07T06:00:47;159851.06;;;4.87;60.77
42945;BME280;28584;42.636;23.294;2023-04-07T06:03:13;159948.16;;;5.23;58.54
42945;BME280;28584;42.636;23.294;2023-04-07T06:05:38;159881.66;;;4.98;56.00
42945;BME280;28584;42.636;23.294;2023-04-07T06:08:10;159969.41;;;5.31;54.67
42945;BME280;28584;42.636;23.294;2023-04-07T06:10:35;160042.63;;;5.59;54.49
42945;BME280;28584;42.636;23.294;2023-04-07T06:13:01;159994.72;;;5.41;51.63
42945;BME280;28584;42.636;23.294;2023-04-07T06:15:26;160025.28;;;5.52;53.16
42945;BME280;28584;42.636;23.294;2023-04-07T06:17:51;159961.44;;;5.28;51.91
42945;BME280;28584;42.636;23.294;2023-04-07T06:20:17;160077.22;;;5.72;52.21
42945;BME280;28584;42.636;23.294;2023-04-07T06:22:45;160257.00;;;6.40;50.23
42945;BME280;28584;42.636;23.294;2023-04-07T06:25:11;160427.44;;;7.04;49.04
42945;BME280;28584;42.636;23.294;2023-04-07T06:27:36;160536.72;;;7.45;48.04
42945;BME280;28584;42.636;23.294;2023-04-07T06:30:02;160456.75;;;7.15;47.62
42945;BME280;28584;42.636;23.294;2023-04-07T06:32:28;160382.16;;;6.87;47.50
42945;BME280;28584;42.636;23.294;2023-04-07T06:34:53;160250.28;;;6.37;47.94
42945;BME280;28584;42.636;23.294;2023-04-07T06:37:18;160077.22;;;5.72;48.37
42945;BME280;28584;42.636;23.294;2023-04-07T06:39:44;160126.47;;;5.91;49.12
42945;BME280;28584;42.636;23.294;2023-04-07T06:42:10;160155.81;;;6.02;48.56
42945;BME280;28584;42.636;23.294;2023-04-07T06:44:35;160105.22;;;5.83;48.49
42945;BME280;28584;42.636;23.294;2023-04-07T06:47:00;160065.25;;;5.67;49.44
42945;BME280;28584;42.636;23.294;2023-04-07T06:49:26;160402.16;;;6.94;47.51
42945;BME280;28584;42.636;23.294;2023-04-07T06:51:51;160464.75;;;7.18;47.19
42945;BME280;28584;42.636;23.294;2023-04-07T06:54:16;160323.56;;;6.65;46.68
42945;BME280;28584;42.636;23.294;2023-04-07T06:56:42;160339.56;;;6.71;47.02
42945;BME280;28584;42.636;23.294;2023-04-07T06:59:07;160630.00;;;7.80;45.73
42945;BME280;28584;42.636;23.294;2023-04-07T07:01:33;160435.44;;;7.07;45.22
42945;BME280;28584;42.636;23.294;2023-04-07T07:03:58;160239.66;;;6.33;46.69
42945;BME280;28584;42.636;23.294;2023-04-07T07:06:27;160374.16;;;6.84;46.61
42945;BME280;28584;42.636;23.294;2023-04-07T07:08:53;160667.31;;;7.94;46.61
42945;BME280;28584;42.636;23.294;2023-04-07T07:11:18;160858.06;;;8.66;44.84
42945;BME280;28584;42.636;23.294;2023-04-07T07:13:43;160994.19;;;9.17;43.93
42945;BME280;28584;42.636;23.294;2023-04-07T07:16:09;161202.44;;;9.95;42.48
42945;BME280;28584;42.636;23.294;2023-04-07T07:18:36;161198.44;;;9.93;41.37
42945;BME280;28584;42.636;23.294;2023-04-07T07:21:02;161346.72;;;10.49;41.29
42945;BME280;28584;42.636;23.294;2023-04-07T07:23:27;161561.84;;;11.30;39.99
42945;BME280;28584;42.636;23.294;2023-04-07T07:25:53;161873.50;;;12.46;39.06
42945;BME280;28584;42.636;23.294;2023-04-07T07:28:18;161644.75;;;11.61;38.83
42945;BME280;28584;42.636;23.294;2023-04-07T07:30:45;161250.56;;;10.13;38.53
42945;BME280;28584;42.636;23.294;2023-04-07T07:33:11;161289.25;;;10.27;39.78
42945;BME280;28584;42.636;23.294;2023-04-07T07:35:36;161249.19;;;10.12;40.52
42945;BME280;28584;42.636;23.294;2023-04-07T07:38:02;161497.69;;;11.05;39.59
42945;BME280;28584;42.636;23.294;2023-04-07T07:40:27;161429.53;;;10.80;38.29
42945;BME280;28584;42.636;23.294;2023-04-07T07:42:53;160954.16;;;9.02;39.86
42945;BME280;28584;42.636;23.294;2023-04-07T07:45:18;160656.66;;;7.90;41.27
42945;BME280;28584;42.636;23.294;2023-04-07T07:47:44;160803.41;;;8.45;42.58
42945;BME280;28584;42.636;23.294;2023-04-07T07:50:09;160680.69;;;7.99;42.37
42945;BME280;28584;42.636;23.294;2023-04-07T07:52:35;160604.69;;;7.70;43.27
42945;BME280;28584;42.636;23.294;2023-04-07T07:55:01;160836.75;;;8.58;43.08
42945;BME280;28584;42.636;23.294;2023-04-07T07:57:26;160995.53;;;9.17;42.02
42945;BME280;28584;42.636;23.294;2023-04-07T07:59:52;161087.59;;;9.52;40.99
42945;BME280;28584;42.636;23.294;2023-04-07T08:02:18;161473.63;;;10.96;39.77
42945;BME280;28584;42.636;23.294;2023-04-07T08:04:43;161652.81;;;11.64;37.87
42945;BME280;28584;42.636;23.294;2023-04-07T08:07:09;161497.69;;;11.05;38.41
42945;BME280;28584;42.636;23.294;2023-04-07T08:09:36;161660.84;;;11.67;38.36
42945;BME280;28584;42.636;23.294;2023-04-07T08:12:02;161770.47;;;12.08;37.96
42945;BME280;28584;42.636;23.294;2023-04-07T08:14:28;161445.59;;;10.86;38.53
42945;BME280;28584;42.636;23.294;2023-04-07T08:16:54;161225.09;;;10.03;38.54
42945;BME280;28584;42.636;23.294;2023-04-07T08:19:20;161010.22;;;9.23;39.84
42945;BME280;28584;42.636;23.294;2023-04-07T08:21:45;161019.53;;;9.26;39.71
42945;BME280;28584;42.636;23.294;2023-04-07T08:24:11;161233.16;;;10.06;39.53
42945;BME280;28584;42.636;23.294;2023-04-07T08:26:37;161388.13;;;10.64;38.21
42945;BME280;28584;42.636;23.294;2023-04-07T08:29:02;161018.22;;;9.26;39.40
42945;BME280;28584;42.636;23.294;2023-04-07T08:31:28;160840.75;;;8.59;40.81
42945;BME280;28584;42.636;23.294;2023-04-07T08:33:53;160662.03;;;7.92;42.31
42945;BME280;28584;42.636;23.294;2023-04-07T08:36:25;160639.38;;;7.83;42.88
42945;BME280;28584;42.636;23.294;2023-04-07T08:38:52;160643.31;;;7.85;43.31
42945;BME280;28584;42.636;23.294;2023-04-07T08:41:23;160615.34;;;7.74;43.51
42945;BME280;28584;42.636;23.294;2023-04-07T08:43:52;160512.72;;;7.36;43.66
42945;BME280;28584;42.636;23.294;2023-04-07T08:46:20;160568.66;;;7.57;43.95
42945;BME280;28584;42.636;23.294;2023-04-07T08:48:50;160600.69;;;7.69;43.62
42945;BME280;28584;42.636;23.294;2023-04-07T08:51:22;160747.41;;;8.24;42.73
42945;BME280;28584;42.636;23.294;2023-04-07T08:53:52;160880.75;;;8.74;42.87
42945;BME280;28584;42.636;23.294;2023-04-07T08:56:19;160843.41;;;8.60;41.95
42945;BME280;28584;42.636;23.294;2023-04-07T08:58:46;160850.06;;;8.63;42.40
42945;BME280;28584;42.636;23.294;2023-04-07T09:01:12;160640.66;;;7.84;43.06
42945;BME280;28584;42.636;23.294;2023-04-07T09:03:38;160570.03;;;7.57;43.93
42945;BME280;28584;42.636;23.294;2023-04-07T09:06:03;160760.72;;;8.29;43.28
42945;BME280;28584;42.636;23.294;2023-04-07T09:08:29;160851.41;;;8.63;42.95
42945;BME280;28584;42.636;23.294;2023-04-07T09:10:55;161100.97;;;9.57;41.69
42945;BME280;28584;42.636;23.294;2023-04-07T09:13:23;161076.94;;;9.48;41.11
42945;BME280;28584;42.636;23.294;2023-04-07T09:15:48;161091.59;;;9.53;40.86
42945;BME280;28584;42.636;23.294;2023-04-07T09:18:14;160811.41;;;8.48;41.80
42945;BME280;28584;42.636;23.294;2023-04-07T09:23:32;160656.66;;;7.90;43.71
42945;BME280;28584;42.636;23.294;2023-04-07T09:26:00;160798.06;;;8.43;42.60
42945;BME280;28584;42.636;23.294;2023-04-07T09:28:41;160725.97;;;8.16;42.53
42945;BME280;28584;42.636;23.294;2023-04-07T09:31:07;160630.00;;;7.80;43.79
42945;BME280;28584;42.636;23.294;2023-04-07T09:33:32;160750.06;;;8.25;43.05
42945;BME280;28584;42.636;23.294;2023-04-07T09:35:58;160755.41;;;8.27;43.39
42945;BME280;28584;42.636;23.294;2023-04-07T09:38:32;160560.72;;;7.54;43.64
42945;BME280;28584;42.636;23.294;2023-04-07T09:41:14;160554.03;;;7.51;43.91
42945;BME280;28584;42.636;23.294;2023-04-07T09:43:42;160655.31;;;7.89;44.34
42945;BME280;28584;42.636;23.294;2023-04-07T09:46:18;160554.03;;;7.51;45.16
42945;BME280;28584;42.636;23.294;2023-04-07T09:48:44;160543.34;;;7.47;45.30
42945;BME280;28584;42.636;23.294;2023-04-07T09:51:12;160540.72;;;7.46;45.09
42945;BME280;28584;42.636;23.294;2023-04-07T09:53:49;160424.78;;;7.03;45.56
42945;BME280;28584;42.636;23.294;2023-04-07T09:56:16;160342.19;;;6.72;46.20
42945;BME280;28584;42.636;23.294;2023-04-07T09:58:43;160355.50;;;6.77;46.08
42945;BME280;28584;42.636;23.294;2023-04-07T10:01:10;160391.50;;;6.90;46.13
42945;BME280;28584;42.636;23.294;2023-04-07T10:03:36;160539.34;;;7.46;44.99
42945;BME280;28584;42.636;23.294;2023-04-07T10:06:02;160611.34;;;7.73;45.05
42945;BME280;28584;42.636;23.294;2023-04-07T10:08:30;160635.34;;;7.82;45.44
42945;BME280;28584;42.636;23.294;2023-04-07T10:10:57;160756.72;;;8.27;44.55
42945;BME280;28584;42.636;23.294;2023-04-07T10:13:24;160810.06;;;8.48;44.11
42945;BME280;28584;42.636;23.294;2023-04-07T10:15:50;160846.06;;;8.61;43.74
42945;BME280;28584;42.636;23.294;2023-04-07T10:18:18;160974.16;;;9.09;44.08
42945;BME280;28584;42.636;23.294;2023-04-07T10:20:46;161026.19;;;9.29;41.62
42945;BME280;28584;42.636;23.294;2023-04-07T10:26:15;160979.50;;;9.11;42.40
42945;BME280;28584;42.636;23.294;2023-04-07T10:28:45;160902.13;;;8.82;42.73
42945;BME280;28584;42.636;23.294;2023-04-07T10:31:13;160651.31;;;7.88;43.36
42945;BME280;28584;42.636;23.294;2023-04-07T10:36:13;160608.69;;;7.72;44.90
42945;BME280;28584;42.636;23.294;2023-04-07T10:38:39;160579.38;;;7.61;44.81
42945;BME280;28584;42.636;23.294;2023-04-07T10:44:07;160608.69;;;7.72;45.51
42945;BME280;28584;42.636;23.294;2023-04-07T10:47:02;160642.00;;;7.84;44.78
42945;BME280;28584;42.636;23.294;2023-04-07T10:49:29;160678.00;;;7.98;44.08
42945;BME280;28584;42.636;23.294;2023-04-07T10:54:39;160534.06;;;7.44;45.18
42945;BME280;28584;42.636;23.294;2023-04-07T10:57:12;160458.09;;;7.15;46.08
42945;BME280;28584;42.636;23.294;2023-04-07T10:59:40;160396.78;;;6.92;46.40
42945;BME280;28584;42.636;23.294;2023-04-07T11:04:41;160295.56;;;6.54;50.98
42945;BME280;28584;42.636;23.294;2023-04-07T11:07:08;160163.75;;;6.05;50.90
42945;BME280;28584;42.636;23.294;2023-04-07T11:09:33;160179.75;;;6.11;51.42
42945;BME280;28584;42.636;23.294;2023-04-07T11:11:59;160263.63;;;6.42;52.58
42945;BME280;28584;42.636;23.294;2023-04-07T11:14:29;160105.22;;;5.83;53.45
42945;BME280;28584;42.636;23.294;2023-04-07T11:16:55;160147.81;;;5.99;53.36
42945;BME280;28584;42.636;23.294;2023-04-07T11:19:21;159977.41;;;5.34;54.03
42945;BME280;28584;42.636;23.294;2023-04-07T11:21:47;160073.25;;;5.70;54.15
42945;BME280;28584;42.636;23.294;2023-04-07T11:24:34;160113.19;;;5.86;53.46
42945;BME280;28584;42.636;23.294;2023-04-07T11:27:02;160367.50;;;6.81;50.00
42945;BME280;28584;42.636;23.294;2023-04-07T11:29:31;160402.16;;;6.94;49.00
42945;BME280;28584;42.636;23.294;2023-04-07T11:32:00;160523.34;;;7.40;48.06
42945;BME280;28584;42.636;23.294;2023-04-07T11:34:33;160539.34;;;7.46;47.21
42945;BME280;28584;42.636;23.294;2023-04-07T11:37:25;160639.38;;;7.83;46.91
42945;BME280;28584;42.636;23.294;2023-04-07T11:39:54;160388.78;;;6.89;48.11
42945;BME280;28584;42.636;23.294;2023-04-07T11:42:36;160363.50;;;6.80;48.21
42945;BME280;28584;42.636;23.294;2023-04-07T11:45:02;160344.84;;;6.73;49.07
42945;BME280;28584;42.636;23.294;2023-04-07T11:47:34;160367.50;;;6.81;48.30
42945;BME280;28584;42.636;23.294;2023-04-07T11:50:00;160478.09;;;7.23;48.38
42945;BME280;28584;42.636;23.294;2023-04-07T11:52:25;160351.50;;;6.75;50.03
42945;BME280;28584;42.636;23.294;2023-04-07T11:54:50;160474.09;;;7.21;50.65
42945;BME280;28584;42.636;23.294;2023-04-07T11:57:28;160276.94;;;6.47;53.10
42945;BME280;28584;42.636;23.294;2023-04-07T12:00:06;160219.72;;;6.26;53.45
42945;BME280;28584;42.636;23.294;2023-04-07T12:02:33;160342.19;;;6.72;54.15
42945;BME280;28584;42.636;23.294;2023-04-07T12:04:59;160355.50;;;6.77;52.88
42945;BME280;28584;42.636;23.294;2023-04-07T12:07:24;160264.94;;;6.43;54.23
42945;BME280;28584;42.636;23.294;2023-04-07T12:09:52;160182.38;;;6.12;55.39
42945;BME280;28584;42.636;23.294;2023-04-07T12:12:27;160280.94;;;6.49;55.17
42945;BME280;28584;42.636;23.294;2023-04-07T12:14:54;160378.16;;;6.85;54.07
42945;BME280;28584;42.636;23.294;2023-04-07T12:17:25;160127.84;;;5.91;54.50
42945;BME280;28584;42.636;23.294;2023-04-07T12:19:51;160280.94;;;6.49;54.82
42945;BME280;28584;42.636;23.294;2023-04-07T12:22:17;160320.91;;;6.64;54.10
42945;BME280;28584;42.636;23.294;2023-04-07T12:24:43;160506.06;;;7.33;53.36
42945;BME280;28584;42.636;23.294;2023-04-07T12:27:08;160187.72;;;6.14;53.48
42945;BME280;28584;42.636;23.294;2023-04-07T12:29:34;160315.56;;;6.62;54.14
42945;BME280;28584;42.636;23.294;2023-04-07T12:32:01;160398.16;;;6.93;53.23
42945;BME280;28584;42.636;23.294;2023-04-07T12:34:26;160400.78;;;6.94;53.12
42945;BME280;28584;42.636;23.294;2023-04-07T12:36:52;160280.94;;;6.49;54.13
42945;BME280;28584;42.636;23.294;2023-04-07T12:39:18;160584.69;;;7.63;53.42
42945;BME280;28584;42.636;23.294;2023-04-07T12:41:43;160580.69;;;7.61;51.87
42945;BME280;28584;42.636;23.294;2023-04-07T12:44:10;160643.31;;;7.85;51.93
42945;BME280;28584;42.636;23.294;2023-04-07T12:46:35;160331.56;;;6.68;52.65
42945;BME280;28584;42.636;23.294;2023-04-07T12:49:01;160507.41;;;7.34;52.70
42945;BME280;28584;42.636;23.294;2023-04-07T12:51:27;160471.41;;;7.20;53.43
42945;BME280;28584;42.636;23.294;2023-04-07T12:53:52;160462.09;;;7.17;51.83
42945;BME280;28584;42.636;23.294;2023-04-07T12:56:18;160432.78;;;7.06;52.96
42945;BME280;28584;42.636;23.294;2023-04-07T12:58:46;160571.38;;;7.58;51.98
42945;BME280;28584;42.636;23.294;2023-04-07T13:01:12;160772.72;;;8.33;51.15
42945;BME280;28584;42.636;23.294;2023-04-07T13:03:38;160563.38;;;7.55;51.50
42945;BME280;28584;42.636;23.294;2023-04-07T13:06:04;160151.81;;;6.00;54.68
42945;BME280;28584;42.636;23.294;2023-04-07T13:08:30;160137.19;;;5.95;55.78
42945;BME280;28584;42.636;23.294;2023-04-07T13:10:55;160190.38;;;6.15;55.87